createdAt,value
2023-03-13T00:01:09.972Z,29.00
2023-03-13T00:03:36.844Z,64.53
2023-03-13T00:06:03.978Z,179.77
2023-03-13T00:08:31.001Z,50.85
2023-03-13T00:10:58.169Z,27.45
2023-03-13T00:13:25.183Z,14.85
2023-03-13T00:16:00.261Z,16.33
2023-03-13T00:18:27.037Z,13.85
2023-03-13T00:21:02.069Z,14.10
2023-03-13T00:23:29.668Z,9.55
2023-03-13T00:26:01.779Z,9.68
2023-03-13T00:28:32.394Z,8.75
2023-03-13T00:31:26.859Z,8.57
2023-03-13T00:33:57.494Z,6.93
2023-03-13T00:36:27.425Z,10.27
2023-03-13T00:38:55.681Z,7.38
2023-03-13T00:41:25.195Z,9.60
2023-03-13T00:43:53.356Z,7.85
2023-03-13T00:46:23.643Z,8.50
2023-03-13T00:48:51.325Z,9.53
2023-03-13T00:51:19.679Z,7.30
2023-03-13T00:53:48.795Z,14.75
2023-03-13T00:56:18.464Z,7.18
2023-03-13T00:58:47.148Z,9.82
2023-03-13T01:01:24.809Z,10.45
2023-03-13T01:04:00.524Z,6.78
2023-03-13T01:06:30.205Z,9.63
2023-03-13T01:08:59.270Z,9.57
2023-03-13T01:11:29.747Z,12.55
2023-03-13T01:13:59.820Z,11.30
2023-03-13T01:16:27.905Z,10.85
2023-03-13T01:18:59.097Z,8.82
2023-03-13T01:23:54.723Z,8.45
2023-03-13T01:26:22.552Z,8.32
2023-03-13T01:28:49.725Z,10.27
2023-03-13T01:31:25.231Z,5.65
2023-03-13T01:33:55.889Z,6.88
2023-03-13T01:36:23.352Z,4.50
2023-03-13T01:38:52.340Z,7.60
2023-03-13T01:41:21.029Z,6.30
2023-03-13T01:43:48.517Z,5.97
2023-03-13T01:46:25.271Z,7.53
2023-03-13T01:49:27.590Z,10.60
2023-03-13T01:52:18.634Z,10.02
2023-03-13T01:54:59.469Z,7.53
2023-03-13T01:57:40.191Z,10.00
2023-03-13T02:00:16.861Z,8.30
2023-03-13T02:02:49.015Z,10.80
2023-03-13T02:05:17.408Z,8.38
2023-03-13T02:07:50.801Z,10.43
2023-03-13T02:10:19.144Z,10.00
2023-03-13T02:12:46.067Z,10.52
2023-03-13T02:15:19.218Z,9.90
2023-03-13T02:17:48.216Z,9.55
2023-03-13T02:20:18.639Z,10.82
2023-03-13T02:22:48.972Z,10.27
2023-03-13T02:25:24.186Z,14.27
2023-03-13T02:28:34.049Z,18.27
2023-03-13T02:31:03.811Z,13.88
2023-03-13T02:33:35.586Z,10.10
2023-03-13T02:36:03.999Z,10.45
2023-03-13T02:38:35.057Z,8.10
2023-03-13T02:41:04.717Z,17.10
2023-03-13T02:43:36.899Z,13.38
2023-03-13T02:46:09.572Z,10.30
2023-03-13T02:48:43.368Z,8.40
2023-03-13T02:51:18.690Z,12.43
2023-03-13T02:53:48.526Z,9.93
2023-03-13T02:56:20.306Z,9.88
2023-03-13T02:58:50.360Z,8.98
2023-03-13T03:01:21.642Z,9.70
2023-03-13T03:03:48.981Z,7.75
2023-03-13T03:06:16.082Z,9.80
2023-03-13T03:08:44.024Z,7.07
2023-03-13T03:11:12.413Z,10.55
2023-03-13T03:13:40.408Z,10.00
2023-03-13T03:16:09.809Z,9.27
2023-03-13T03:18:38.564Z,8.20
2023-03-13T03:21:06.718Z,6.35
2023-03-13T03:23:38.086Z,10.48
2023-03-13T03:26:06.476Z,8.43
2023-03-13T03:28:33.869Z,8.95
2023-03-13T03:31:11.896Z,12.55
2023-03-13T03:33:39.916Z,8.60
2023-03-13T03:36:13.930Z,7.35
2023-03-13T03:41:11.217Z,8.23
2023-03-13T03:43:38.297Z,8.52
2023-03-13T03:46:08.047Z,10.63
2023-03-13T03:48:35.491Z,10.45
2023-03-13T03:51:05.929Z,180.38
2023-03-13T03:53:35.759Z,187.43
2023-03-13T03:56:02.868Z,38.78
2023-03-13T03:58:30.165Z,18.35
2023-03-13T04:01:12.875Z,12.38
2023-03-13T04:03:40.617Z,15.07
2023-03-13T04:06:07.686Z,11.70
2023-03-13T04:08:34.603Z,8.35
2023-03-13T04:11:02.723Z,9.75
2023-03-13T04:13:33.681Z,9.68
2023-03-13T04:16:00.910Z,12.48
2023-03-13T04:18:27.992Z,8.93
2023-03-13T04:21:06.145Z,19.98
2023-03-13T04:23:41.773Z,7.10
2023-03-13T04:26:09.030Z,13.25
2023-03-13T04:28:37.018Z,15.98
2023-03-13T04:31:06.599Z,20.13
2023-03-13T04:33:59.795Z,46.30
2023-03-13T04:36:38.875Z,46.30
2023-03-13T04:39:26.120Z,48.63
2023-03-13T04:42:12.382Z,53.20
2023-03-13T04:44:56.237Z,42.25
2023-03-13T04:47:52.461Z,36.78
2023-03-13T04:50:31.689Z,22.85
2023-03-13T04:53:19.361Z,18.73
2023-03-13T04:56:42.340Z,66.18
2023-03-13T04:59:19.173Z,63.40
2023-03-13T05:02:04.353Z,38.97
2023-03-13T05:04:51.156Z,30.98
2023-03-13T05:07:48.681Z,19.88
2023-03-13T05:10:35.022Z,23.75
2023-03-13T05:13:25.389Z,22.33
2023-03-13T05:15:55.309Z,29.20
2023-03-13T05:18:54.792Z,24.63
2023-03-13T05:21:40.031Z,27.70
2023-03-13T05:24:42.155Z,27.85
2023-03-13T05:27:26.810Z,28.90
2023-03-13T05:30:07.458Z,24.25
2023-03-13T05:32:41.840Z,25.88
2023-03-13T05:35:19.696Z,20.42
2023-03-13T05:38:05.129Z,24.27
2023-03-13T05:40:52.361Z,35.55
2023-03-13T05:43:38.176Z,30.55
2023-03-13T05:46:28.209Z,34.20
2023-03-13T05:49:05.706Z,34.92
2023-03-13T05:51:48.883Z,31.08
2023-03-13T05:54:42.149Z,21.13
2023-03-13T05:57:14.682Z,31.70
2023-03-13T06:00:04.424Z,30.77
2023-03-13T06:02:45.149Z,27.50
2023-03-13T06:05:17.199Z,30.58
2023-03-13T06:07:45.292Z,31.23
2023-03-13T06:10:12.656Z,25.13
2023-03-13T06:12:39.975Z,33.08
2023-03-13T06:15:12.124Z,25.45
2023-03-13T06:17:54.664Z,24.30
2023-03-13T06:20:22.507Z,27.98
2023-03-13T06:22:49.488Z,27.58
2023-03-13T06:25:16.471Z,21.95
2023-03-13T06:27:43.648Z,18.50
2023-03-13T06:30:11.204Z,21.98
2023-03-13T06:32:38.474Z,22.95
2023-03-13T06:35:06.146Z,15.93
2023-03-13T06:37:33.827Z,15.77
2023-03-13T06:40:00.744Z,11.93
2023-03-13T06:42:27.671Z,11.55
2023-03-13T06:44:54.847Z,11.95
2023-03-13T06:47:21.914Z,15.70
2023-03-13T06:49:49.204Z,8.60
2023-03-13T06:52:16.250Z,10.48
2023-03-13T06:54:43.115Z,8.35
2023-03-13T06:57:10.037Z,7.60
2023-03-13T06:59:36.935Z,8.40
2023-03-13T07:02:04.704Z,7.65
2023-03-13T07:04:31.489Z,10.63
2023-03-13T07:06:58.489Z,14.40
2023-03-13T07:09:25.538Z,11.23
2023-03-13T07:11:55.401Z,13.93
2023-03-13T07:14:22.509Z,7.70
2023-03-13T07:16:49.598Z,11.50
2023-03-13T07:19:17.520Z,10.38
2023-03-13T07:21:44.539Z,13.73
2023-03-13T07:24:11.556Z,9.52
2023-03-13T07:26:38.906Z,12.88
2023-03-13T07:29:06.176Z,22.85
2023-03-13T07:31:34.153Z,8.15
2023-03-13T07:34:01.674Z,13.43
2023-03-13T07:36:29.945Z,5.47
2023-03-13T07:38:57.105Z,4.78
2023-03-13T07:41:24.015Z,4.60
2023-03-13T07:43:50.914Z,6.80
2023-03-13T07:46:20.084Z,4.90
2023-03-13T07:48:47.808Z,5.22
2023-03-13T07:51:25.276Z,6.70
2023-03-13T07:53:57.407Z,7.13
2023-03-13T07:56:24.666Z,5.20
2023-03-13T07:58:52.203Z,5.15
2023-03-13T08:01:20.379Z,5.18
2023-03-13T08:03:50.752Z,5.18
2023-03-13T08:06:25.049Z,5.57
2023-03-13T08:08:53.932Z,10.30
2023-03-13T08:11:22.536Z,8.13
2023-03-13T08:13:52.457Z,6.65
2023-03-13T08:16:22.361Z,10.23
2023-03-13T08:18:52.142Z,8.65
2023-03-13T08:21:22.080Z,4.90
2023-03-13T08:23:52.397Z,4.82
2023-03-13T08:26:21.126Z,4.80
2023-03-13T08:28:52.029Z,4.45
2023-03-13T08:31:22.833Z,3.95
2023-03-13T08:33:50.519Z,4.20
2023-03-13T08:36:20.841Z,7.85
2023-03-13T08:38:48.194Z,4.63
2023-03-13T08:41:20.759Z,6.32
2023-03-13T08:43:48.624Z,12.52
2023-03-13T08:46:17.823Z,9.15
2023-03-13T08:48:50.853Z,10.52
2023-03-13T08:51:19.368Z,7.20
2023-03-13T08:53:46.893Z,5.00
2023-03-13T08:56:16.740Z,10.32
2023-03-13T08:58:43.932Z,6.25
2023-03-13T09:01:15.074Z,3.35
2023-03-13T09:03:42.561Z,4.35
2023-03-13T09:06:11.274Z,10.68
2023-03-13T09:08:39.707Z,3.22
2023-03-13T09:11:15.839Z,3.15
2023-03-13T09:13:48.069Z,2.60
2023-03-13T09:16:18.152Z,5.20
2023-03-13T09:18:45.863Z,4.93
2023-03-13T09:21:15.879Z,3.10
2023-03-13T09:23:43.242Z,5.50
2023-03-13T09:26:10.675Z,6.03
2023-03-13T09:28:39.483Z,1.95
2023-03-13T09:31:18.097Z,2.45
2023-03-13T09:33:46.585Z,1.70
2023-03-13T09:36:13.505Z,3.13
2023-03-13T09:38:41.422Z,3.22
2023-03-13T09:41:44.131Z,1.90
2023-03-13T09:44:27.061Z,2.58
2023-03-13T09:47:08.410Z,3.08
2023-03-13T09:49:42.445Z,3.63
2023-03-13T09:52:18.322Z,15.80
2023-03-13T09:54:52.490Z,2.78
2023-03-13T09:57:31.721Z,3.55
2023-03-13T10:00:20.216Z,2.05
2023-03-13T10:02:56.720Z,3.83
2023-03-13T10:05:26.600Z,2.10
2023-03-13T10:08:17.769Z,6.55
2023-03-13T10:10:53.062Z,4.57
2023-03-13T10:13:34.094Z,4.55
2023-03-13T10:16:18.211Z,3.88
2023-03-13T10:18:52.157Z,2.75
2023-03-13T10:21:22.241Z,2.33
2023-03-13T10:24:23.461Z,2.05
2023-03-13T10:26:50.847Z,3.08
2023-03-13T10:29:29.495Z,2.38
2023-03-13T10:32:05.922Z,2.28
2023-03-13T10:34:53.871Z,2.33
2023-03-13T10:37:29.732Z,1.80
2023-03-13T10:40:25.201Z,2.25
2023-03-13T10:42:54.213Z,2.10
2023-03-13T10:45:25.096Z,4.75
2023-03-13T10:47:57.481Z,3.15
2023-03-13T10:50:27.485Z,3.88
2023-03-13T10:52:57.885Z,1.98
2023-03-13T10:55:26.244Z,4.30
2023-03-13T10:58:00.500Z,3.92
2023-03-13T11:00:41.244Z,2.10
2023-03-13T11:03:22.294Z,2.25
2023-03-13T11:06:01.319Z,2.05
2023-03-13T11:08:35.287Z,4.43
2023-03-13T11:11:05.259Z,2.88
2023-03-13T11:13:43.054Z,2.42
2023-03-13T11:16:46.799Z,3.92
2023-03-13T11:19:13.868Z,1.80
2023-03-13T11:21:49.914Z,3.25
2023-03-13T11:24:27.665Z,4.53
2023-03-13T11:27:05.394Z,3.45
2023-03-13T11:29:45.733Z,2.17
2023-03-13T11:32:23.083Z,4.10
2023-03-13T11:35:01.689Z,2.35
2023-03-13T11:37:33.268Z,2.40
2023-03-13T11:40:21.385Z,4.53
2023-03-13T11:43:24.979Z,2.53
2023-03-13T11:46:02.448Z,5.35
2023-03-13T11:48:35.274Z,4.20
2023-03-13T11:51:14.493Z,2.72
2023-03-13T11:53:43.864Z,3.63
2023-03-13T11:56:36.772Z,2.92
2023-03-13T11:59:25.359Z,7.75
2023-03-13T12:02:10.739Z,2.70
2023-03-13T12:04:43.907Z,4.10
2023-03-13T12:07:39.529Z,2.50
2023-03-13T12:10:25.201Z,3.50
2023-03-13T12:13:02.741Z,7.72
2023-03-13T12:15:45.658Z,2.60
2023-03-13T12:18:15.694Z,4.75
2023-03-13T12:21:14.694Z,75.10
2023-03-13T12:23:55.371Z,3.40
2023-03-13T12:26:48.927Z,3.05
2023-03-13T12:29:46.756Z,11.52
2023-03-13T12:32:18.515Z,8.80
2023-03-13T12:35:26.288Z,4.05
2023-03-13T12:38:02.234Z,4.22
2023-03-13T12:40:47.923Z,3.45
2023-03-13T12:43:20.295Z,4.95
2023-03-13T12:45:59.559Z,3.15
2023-03-13T12:48:38.577Z,2.63
2023-03-13T12:51:24.042Z,2.25
2023-03-13T12:54:12.575Z,3.13
2023-03-13T12:56:58.159Z,2.95
2023-03-13T12:59:40.170Z,3.35
2023-03-13T13:02:27.163Z,3.28
2023-03-13T13:04:56.321Z,3.55
2023-03-13T13:07:27.634Z,5.15
2023-03-13T13:12:40.990Z,2.38
2023-03-13T13:18:13.793Z,5.93
2023-03-13T13:20:49.646Z,2.25
2023-03-13T13:23:27.985Z,1.90
2023-03-13T13:25:56.765Z,2.33
2023-03-13T13:28:28.718Z,3.45
2023-03-13T13:30:57.116Z,2.90
2023-03-13T13:33:31.031Z,8.27
2023-03-13T13:36:10.111Z,2.42
2023-03-13T13:38:42.288Z,2.97
2023-03-13T13:41:09.304Z,4.03
2023-03-13T13:43:40.641Z,6.20
2023-03-13T13:49:05.231Z,3.08
2023-03-13T13:51:39.148Z,3.67
2023-03-13T13:54:53.442Z,3.65
2023-03-13T13:57:27.841Z,4.53
2023-03-13T13:59:57.602Z,6.10
2023-03-13T14:02:47.544Z,5.78
2023-03-13T14:05:23.504Z,3.78
2023-03-13T14:08:15.663Z,6.97
2023-03-13T14:10:54.372Z,3.33
2023-03-13T14:13:22.707Z,3.75
2023-03-13T14:15:54.385Z,11.68
2023-03-13T14:21:03.159Z,4.60
2023-03-13T14:23:45.139Z,4.07
2023-03-13T14:26:18.177Z,2.17
2023-03-13T14:28:59.596Z,2.17
2023-03-13T14:31:28.277Z,3.42
2023-03-13T14:33:57.519Z,9.13
2023-03-13T14:36:25.150Z,7.60
2023-03-13T14:39:00.233Z,2.30
2023-03-13T14:41:36.501Z,4.80
2023-03-13T14:44:17.156Z,2.80
2023-03-13T14:46:44.979Z,4.97
2023-03-13T14:49:25.518Z,6.47
2023-03-13T14:52:03.478Z,3.88
2023-03-13T14:54:51.664Z,4.95
2023-03-13T14:57:23.308Z,6.90
2023-03-13T14:59:51.816Z,5.20
2023-03-13T15:02:21.937Z,8.55
2023-03-13T15:04:51.161Z,8.40
2023-03-13T15:07:18.728Z,5.95
2023-03-13T15:09:47.300Z,6.18
2023-03-13T15:12:17.177Z,6.68
2023-03-13T15:14:46.842Z,4.90
2023-03-13T15:17:27.813Z,6.97
2023-03-13T15:19:57.495Z,6.80
2023-03-13T15:22:31.301Z,15.68
2023-03-13T15:25:07.641Z,2.72
2023-03-13T15:27:35.684Z,3.00
2023-03-13T15:30:02.759Z,9.93
2023-03-13T15:32:33.816Z,5.30
2023-03-13T15:35:02.170Z,8.57
2023-03-13T15:37:30.682Z,6.32
2023-03-13T15:39:58.182Z,6.03
2023-03-13T15:42:25.599Z,5.50
2023-03-13T15:44:52.746Z,6.68
2023-03-13T15:47:21.750Z,6.75
2023-03-13T15:49:48.817Z,20.67
2023-03-13T15:52:19.453Z,34.80
2023-03-13T15:54:47.078Z,34.93
2023-03-13T15:57:17.334Z,31.75
2023-03-13T15:59:44.584Z,32.55
2023-03-13T16:02:17.328Z,41.92
2023-03-13T16:04:45.352Z,112.05
2023-03-13T16:07:14.267Z,162.85
2023-03-13T16:09:42.231Z,25.10
2023-03-13T16:12:09.894Z,27.83
2023-03-13T16:14:37.239Z,41.22
2023-03-13T16:17:12.076Z,25.58
2023-03-13T16:19:39.128Z,19.40
2023-03-13T16:22:05.933Z,11.77
2023-03-13T16:24:32.848Z,9.38
2023-03-13T16:26:59.813Z,12.85
2023-03-13T16:29:26.807Z,10.18
2023-03-13T16:31:53.682Z,9.10
2023-03-13T16:34:20.634Z,5.70
2023-03-13T16:36:47.483Z,19.38
2023-03-13T16:39:16.667Z,5.45
2023-03-13T16:41:43.645Z,14.27
2023-03-13T16:44:10.851Z,13.45
2023-03-13T16:46:39.986Z,8.85
2023-03-13T16:49:11.597Z,12.63
2023-03-13T16:51:40.205Z,14.80
2023-03-13T16:54:07.239Z,11.85
2023-03-13T16:56:36.656Z,12.52
2023-03-13T16:59:08.731Z,16.77
2023-03-13T17:01:36.094Z,22.75
2023-03-13T17:04:03.224Z,24.33
2023-03-13T17:06:44.830Z,31.27
2023-03-13T17:09:15.324Z,31.65
2023-03-13T17:11:42.501Z,48.25
2023-03-13T17:14:10.006Z,35.58
2023-03-13T17:16:42.568Z,52.33
2023-03-13T17:19:16.990Z,44.28
2023-03-13T17:21:44.040Z,61.60
2023-03-13T17:24:11.008Z,84.90
2023-03-13T17:26:39.385Z,113.35
2023-03-13T17:29:08.177Z,243.13
2023-03-13T17:31:38.573Z,464.75
2023-03-13T17:34:06.668Z,296.43
2023-03-13T17:36:34.948Z,138.18
2023-03-13T17:39:04.616Z,67.07
2023-03-13T17:41:33.664Z,45.00
2023-03-13T17:44:00.846Z,46.00
2023-03-13T17:46:35.060Z,60.05
2023-03-13T17:49:03.358Z,53.83
2023-03-13T17:51:32.384Z,35.15
2023-03-13T17:54:00.227Z,31.48
2023-03-13T17:56:30.263Z,29.08
2023-03-13T17:58:59.640Z,23.08
2023-03-13T18:01:29.050Z,65.13
2023-03-13T18:03:56.697Z,54.05
2023-03-13T18:06:27.753Z,31.38
2023-03-13T18:11:24.963Z,50.15
2023-03-13T18:13:52.492Z,65.38
2023-03-13T18:16:37.499Z,42.22
2023-03-13T18:19:06.400Z,47.50
2023-03-13T18:21:34.108Z,76.15
2023-03-13T18:24:00.945Z,82.78
2023-03-13T18:26:37.030Z,87.88
2023-03-13T18:29:12.388Z,52.58
2023-03-13T18:31:41.892Z,18.55
2023-03-13T18:34:09.860Z,19.75
2023-03-13T18:36:37.570Z,15.95
2023-03-13T18:39:08.798Z,30.27
2023-03-13T18:41:36.090Z,38.17
2023-03-13T18:44:02.949Z,57.25
2023-03-13T18:46:31.895Z,70.13
2023-03-13T18:49:01.020Z,30.00
2023-03-13T18:51:28.728Z,36.17
2023-03-13T18:53:56.822Z,39.90
2023-03-13T18:56:26.893Z,37.38
2023-03-13T18:58:55.274Z,37.90
2023-03-13T19:01:24.713Z,31.00
2023-03-13T19:03:52.007Z,29.13
2023-03-13T19:06:28.997Z,14.25
2023-03-13T19:08:59.234Z,20.52
2023-03-13T19:11:29.196Z,18.13
2023-03-13T19:13:56.857Z,19.55
2023-03-13T19:16:26.803Z,20.48
2023-03-13T19:18:53.917Z,27.30
2023-03-13T19:21:25.149Z,30.23
2023-03-13T19:23:52.847Z,16.73
2023-03-13T19:26:31.923Z,18.90
2023-03-13T19:28:59.867Z,14.48
2023-03-13T19:31:27.378Z,14.32
2023-03-13T19:33:54.598Z,15.68
2023-03-13T19:36:24.209Z,8.70
2023-03-13T19:38:51.562Z,9.68
2023-03-13T19:41:18.548Z,6.63
2023-03-13T19:43:47.862Z,9.95
2023-03-13T19:46:22.200Z,12.50
2023-03-13T19:48:51.710Z,13.57
2023-03-13T19:51:18.667Z,14.90
2023-03-13T19:53:46.468Z,11.13
2023-03-13T19:56:24.779Z,7.63
2023-03-13T19:58:58.465Z,9.85
2023-03-13T20:01:25.590Z,14.48
2023-03-13T20:03:52.784Z,14.23
2023-03-13T20:06:30.379Z,16.20
2023-03-13T20:08:59.739Z,18.15
2023-03-13T20:11:27.875Z,28.80
2023-03-13T20:13:55.618Z,18.88
2023-03-13T20:16:25.694Z,19.85
2023-03-13T20:18:52.935Z,18.98
2023-03-13T20:21:20.040Z,20.15
2023-03-13T20:23:49.392Z,13.75
2023-03-13T20:26:18.891Z,20.58
2023-03-13T20:28:48.219Z,24.92
2023-03-13T20:31:17.490Z,23.35
2023-03-13T20:33:44.387Z,26.85
2023-03-13T20:36:17.118Z,29.35
2023-03-13T20:38:44.131Z,41.50
2023-03-13T20:41:11.968Z,45.97
2023-03-13T20:43:39.741Z,39.10
2023-03-13T20:46:09.939Z,38.28
2023-03-13T20:48:39.558Z,45.00
2023-03-13T20:51:08.567Z,42.30
2023-03-13T20:53:41.101Z,32.80
2023-03-13T20:56:09.652Z,21.80
2023-03-13T20:58:37.408Z,22.95
2023-03-13T21:01:06.069Z,28.40
2023-03-13T21:03:36.016Z,16.05
2023-03-13T21:06:09.620Z,16.30
2023-03-13T21:08:38.664Z,13.25
2023-03-13T21:11:13.270Z,16.13
2023-03-13T21:13:40.328Z,12.85
2023-03-13T21:16:07.721Z,13.55
2023-03-13T21:18:34.759Z,13.20
2023-03-13T21:21:07.162Z,15.63
2023-03-13T21:23:34.013Z,18.63
2023-03-13T21:26:00.963Z,15.75
2023-03-13T21:28:28.667Z,30.52
2023-03-13T21:30:56.211Z,56.38
2023-03-13T21:33:23.887Z,44.63
2023-03-13T21:35:51.187Z,25.88
2023-03-13T21:38:18.185Z,35.08
2023-03-13T21:40:45.527Z,13.32
2023-03-13T21:43:12.442Z,24.67
2023-03-13T21:45:39.383Z,25.70
2023-03-13T21:48:06.364Z,24.38
2023-03-13T21:50:33.237Z,23.23
2023-03-13T21:53:00.155Z,26.88
2023-03-13T21:55:27.236Z,15.60
2023-03-13T21:57:54.048Z,11.50
2023-03-13T22:00:21.329Z,15.60
2023-03-13T22:02:48.272Z,15.65
2023-03-13T22:05:15.029Z,11.32
2023-03-13T22:07:42.085Z,7.75
2023-03-13T22:10:09.748Z,11.48
2023-03-13T22:12:37.546Z,14.43
2023-03-13T22:15:04.842Z,10.88
2023-03-13T22:17:31.852Z,13.82
2023-03-13T22:19:58.717Z,10.40
2023-03-13T22:22:25.836Z,7.10
2023-03-13T22:24:54.259Z,6.38
2023-03-13T22:27:23.359Z,5.85
2023-03-13T22:29:50.488Z,5.28
2023-03-13T22:32:17.437Z,6.05
2023-03-13T22:34:47.194Z,6.88
2023-03-13T22:37:14.596Z,11.38
2023-03-13T22:39:41.443Z,4.32
2023-03-13T22:42:08.358Z,5.32
2023-03-13T22:44:35.259Z,7.82
2023-03-13T22:47:02.182Z,5.75
2023-03-13T22:49:29.287Z,6.55
2023-03-13T22:51:56.175Z,13.68
2023-03-13T22:54:23.232Z,8.45
2023-03-13T22:56:49.997Z,13.77
2023-03-13T22:59:17.016Z,16.23
2023-03-13T23:01:43.768Z,13.45
2023-03-13T23:04:10.867Z,12.07
2023-03-13T23:06:38.037Z,10.40
2023-03-13T23:09:05.508Z,15.57
2023-03-13T23:11:32.609Z,9.80
2023-03-13T23:14:00.046Z,7.15
2023-03-13T23:16:26.971Z,5.63
2023-03-13T23:18:54.024Z,9.40
2023-03-13T23:21:20.901Z,25.60
2023-03-13T23:23:48.921Z,13.90
2023-03-13T23:26:16.502Z,9.35
2023-03-13T23:28:43.340Z,5.50
2023-03-13T23:31:12.277Z,5.40
2023-03-13T23:33:39.701Z,11.07
2023-03-13T23:36:12.616Z,11.90
2023-03-13T23:38:39.671Z,11.82
2023-03-13T23:41:08.273Z,9.38
2023-03-13T23:43:35.644Z,10.68
2023-03-13T23:46:02.572Z,11.75
2023-03-13T23:48:30.432Z,14.40
2023-03-13T23:50:57.482Z,15.55
2023-03-13T23:53:24.703Z,8.63
2023-03-13T23:55:58.724Z,14.57
2023-03-13T23:58:25.748Z,12.60
